sensor_id;sensor_type;location;lat;lon;timestamp;pressure;altitude;pressure_sealevel;temperature;humidity
34506;BME280;20748;42.632;23.198;2023-08-06T00:01:23;91011.47;;;18.77;100.00
34506;BME280;20748;42.632;23.198;2023-08-06T00:03:57;91019.00;;;18.79;100.00
34506;BME280;20748;42.632;23.198;2023-08-06T00:06:31;91035.28;;;18.85;100.00
34506;BME280;20748;42.632;23.198;2023-08-06T00:09:04;91032.63;;;18.85;100.00
34506;BME280;20748;42.632;23.198;2023-08-06T00:11:36;91023.22;;;18.91;100.00
34506;BME280;20748;42.632;23.198;2023-08-06T00:14:08;91020.56;;;18.87;100.00
34506;BME280;20748;42.632;23.198;2023-08-06T00:16:43;91012.28;;;18.92;100.00
34506;BME280;20748;42.632;23.198;2023-08-06T00:19:15;91016.81;;;18.99;100.00
34506;BME280;20748;42.632;23.198;2023-08-06T00:21:48;91021.75;;;19.08;100.00
34506;BME280;20748;42.632;23.198;2023-08-06T00:24:21;91019.88;;;19.09;100.00
34506;BME280;20748;42.632;23.198;2023-08-06T00:26:53;91016.50;;;19.15;100.00
34506;BME280;20748;42.632;23.198;2023-08-06T00:29:25;91002.16;;;19.20;100.00
34506;BME280;20748;42.632;23.198;2023-08-06T00:31:58;90996.09;;;19.16;100.00
34506;BME280;20748;42.632;23.198;2023-08-06T00:34:30;91013.47;;;19.17;100.00
34506;BME280;20748;42.632;23.198;2023-08-06T00:37:03;91019.16;;;19.15;100.00
34506;BME280;20748;42.632;23.198;2023-08-06T00:39:36;90994.13;;;18.87;100.00
34506;BME280;20748;42.632;23.198;2023-08-06T00:42:10;90983.88;;;18.60;100.00
34506;BME280;20748;42.632;23.198;2023-08-06T00:44:42;90992.56;;;18.61;100.00
34506;BME280;20748;42.632;23.198;2023-08-06T00:47:15;90984.28;;;18.66;100.00
34506;BME280;20748;42.632;23.198;2023-08-06T00:49:47;90986.84;;;18.51;100.00
34506;BME280;20748;42.632;23.198;2023-08-06T00:52:20;90989.09;;;18.46;100.00
34506;BME280;20748;42.632;23.198;2023-08-06T00:54:53;90993.25;;;18.47;100.00
34506;BME280;20748;42.632;23.198;2023-08-06T00:57:26;90989.13;;;18.49;100.00
34506;BME280;20748;42.632;23.198;2023-08-06T00:59:59;90986.09;;;18.44;100.00
34506;BME280;20748;42.632;23.198;2023-08-06T01:02:32;90968.31;;;18.37;100.00
34506;BME280;20748;42.632;23.198;2023-08-06T01:05:05;90947.53;;;18.24;100.00
34506;BME280;20748;42.632;23.198;2023-08-06T01:07:48;90937.34;;;18.23;100.00
34506;BME280;20748;42.632;23.198;2023-08-06T01:10:33;90948.28;;;18.25;100.00
34506;BME280;20748;42.632;23.198;2023-08-06T01:13:11;90951.34;;;18.31;100.00
34506;BME280;20748;42.632;23.198;2023-08-06T01:15:51;90964.88;;;18.25;100.00
34506;BME280;20748;42.632;23.198;2023-08-06T01:18:28;90962.25;;;18.25;100.00
34506;BME280;20748;42.632;23.198;2023-08-06T01:21:01;90963.34;;;18.17;100.00
34506;BME280;20748;42.632;23.198;2023-08-06T01:23:34;90963.72;;;18.16;100.00
34506;BME280;20748;42.632;23.198;2023-08-06T01:26:13;90953.16;;;18.16;100.00
34506;BME280;20748;42.632;23.198;2023-08-06T01:28:52;90950.53;;;18.19;100.00
34506;BME280;20748;42.632;23.198;2023-08-06T01:31:30;90948.69;;;18.27;100.00
34506;BME280;20748;42.632;23.198;2023-08-06T01:34:06;90943.00;;;18.29;100.00
34506;BME280;20748;42.632;23.198;2023-08-06T01:36:40;90958.13;;;18.32;100.00
34506;BME280;20748;42.632;23.198;2023-08-06T01:39:13;90969.09;;;18.41;100.00
34506;BME280;20748;42.632;23.198;2023-08-06T01:41:46;90965.72;;;18.44;100.00
34506;BME280;20748;42.632;23.198;2023-08-06T01:44:18;90937.00;;;18.35;100.00
34506;BME280;20748;42.632;23.198;2023-08-06T01:46:51;90956.63;;;18.38;100.00
34506;BME280;20748;42.632;23.198;2023-08-06T01:49:23;90971.00;;;18.44;100.00
34506;BME280;20748;42.632;23.198;2023-08-06T01:51:56;90957.78;;;18.44;100.00
34506;BME280;20748;42.632;23.198;2023-08-06T01:54:29;90927.94;;;18.36;100.00
34506;BME280;20748;42.632;23.198;2023-08-06T01:57:03;90936.28;;;18.46;100.00
34506;BME280;20748;42.632;23.198;2023-08-06T01:59:37;90936.66;;;18.48;100.00
34506;BME280;20748;42.632;23.198;2023-08-06T02:02:09;90926.16;;;18.62;100.00
34506;BME280;20748;42.632;23.198;2023-08-06T02:04:41;90942.00;;;18.62;100.00
34506;BME280;20748;42.632;23.198;2023-08-06T02:07:15;90937.84;;;18.65;100.00
34506;BME280;20748;42.632;23.198;2023-08-06T02:09:47;90944.28;;;18.75;100.00
34506;BME280;20748;42.632;23.198;2023-08-06T02:12:19;90940.16;;;18.77;100.00
34506;BME280;20748;42.632;23.198;2023-08-06T02:14:52;90965.06;;;18.76;100.00
34506;BME280;20748;42.632;23.198;2023-08-06T02:17:24;90986.56;;;18.75;100.00
34506;BME280;20748;42.632;23.198;2023-08-06T02:19:57;90988.06;;;18.72;100.00
34506;BME280;20748;42.632;23.198;2023-08-06T02:22:30;90984.66;;;18.75;100.00
34506;BME280;20748;42.632;23.198;2023-08-06T02:25:02;90982.03;;;18.79;100.00
34506;BME280;20748;42.632;23.198;2023-08-06T02:27:35;90975.22;;;18.67;100.00
34506;BME280;20748;42.632;23.198;2023-08-06T02:30:07;90963.88;;;18.70;100.00
34506;BME280;20748;42.632;23.198;2023-08-06T02:32:40;90970.72;;;18.75;100.00
34506;BME280;20748;42.632;23.198;2023-08-06T02:35:12;90971.44;;;18.79;100.00
34506;BME280;20748;42.632;23.198;2023-08-06T02:37:45;90971.84;;;18.81;100.00
34506;BME280;20748;42.632;23.198;2023-08-06T02:40:17;90980.13;;;18.76;100.00
34506;BME280;20748;42.632;23.198;2023-08-06T02:42:50;90969.94;;;18.82;100.00
34506;BME280;20748;42.632;23.198;2023-08-06T02:45:22;90969.59;;;18.79;100.00
34506;BME280;20748;42.632;23.198;2023-08-06T02:47:55;90965.41;;;18.71;100.00
34506;BME280;20748;42.632;23.198;2023-08-06T02:50:27;90950.66;;;18.56;100.00
34506;BME280;20748;42.632;23.198;2023-08-06T02:53:00;90961.22;;;18.52;100.00
34506;BME280;20748;42.632;23.198;2023-08-06T02:55:33;90941.22;;;18.51;100.00
34506;BME280;20748;42.632;23.198;2023-08-06T02:58:10;90934.00;;;18.44;100.00
34506;BME280;20748;42.632;23.198;2023-08-06T03:00:46;90891.38;;;18.35;100.00
34506;BME280;20748;42.632;23.198;2023-08-06T03:03:20;90894.38;;;18.26;100.00
34506;BME280;20748;42.632;23.198;2023-08-06T03:06:00;90912.88;;;18.30;100.00
34506;BME280;20748;42.632;23.198;2023-08-06T03:08:42;90924.59;;;18.43;100.00
34506;BME280;20748;42.632;23.198;2023-08-06T03:11:15;90895.91;;;18.42;100.00
34506;BME280;20748;42.632;23.198;2023-08-06T03:13:47;90907.63;;;18.48;100.00
34506;BME280;20748;42.632;23.198;2023-08-06T03:16:21;90924.59;;;18.50;100.00
34506;BME280;20748;42.632;23.198;2023-08-06T03:18:53;90924.22;;;18.52;100.00
34506;BME280;20748;42.632;23.198;2023-08-06T03:21:26;90914.81;;;18.58;100.00
34506;BME280;20748;42.632;23.198;2023-08-06T03:24:00;90913.69;;;18.67;100.00
34506;BME280;20748;42.632;23.198;2023-08-06T03:26:35;90921.25;;;18.72;100.00
34506;BME280;20748;42.632;23.198;2023-08-06T03:29:08;90922.78;;;18.84;100.00
34506;BME280;20748;42.632;23.198;2023-08-06T03:31:41;90933.72;;;18.78;100.00
34506;BME280;20748;42.632;23.198;2023-08-06T03:34:14;90949.56;;;18.78;100.00
34506;BME280;20748;42.632;23.198;2023-08-06T03:36:47;90959.00;;;18.76;100.00
34506;BME280;20748;42.632;23.198;2023-08-06T03:39:20;90957.50;;;18.68;100.00
34506;BME280;20748;42.632;23.198;2023-08-06T03:41:52;90951.06;;;18.65;100.00
34506;BME280;20748;42.632;23.198;2023-08-06T03:44:26;90954.81;;;18.64;100.00
34506;BME280;20748;42.632;23.198;2023-08-06T03:46:58;90963.88;;;18.63;100.00
34506;BME280;20748;42.632;23.198;2023-08-06T03:49:32;90971.06;;;18.66;100.00
34506;BME280;20748;42.632;23.198;2023-08-06T03:52:05;90975.22;;;18.63;100.00
34506;BME280;20748;42.632;23.198;2023-08-06T03:54:38;90983.50;;;18.65;100.00
34506;BME280;20748;42.632;23.198;2023-08-06T03:57:11;90988.78;;;18.62;100.00
34506;BME280;20748;42.632;23.198;2023-08-06T03:59:44;90983.13;;;18.60;100.00
34506;BME280;20748;42.632;23.198;2023-08-06T04:02:27;90989.13;;;18.57;100.00
34506;BME280;20748;42.632;23.198;2023-08-06T04:05:00;90977.41;;;18.50;100.00
34506;BME280;20748;42.632;23.198;2023-08-06T04:07:33;90977.44;;;18.54;100.00
34506;BME280;20748;42.632;23.198;2023-08-06T04:10:07;90980.84;;;18.51;100.00
34506;BME280;20748;42.632;23.198;2023-08-06T04:12:39;90987.25;;;18.57;100.00
34506;BME280;20748;42.632;23.198;2023-08-06T04:15:12;90990.28;;;18.56;100.00
34506;BME280;20748;42.632;23.198;2023-08-06T04:17:44;90981.19;;;18.49;100.00
34506;BME280;20748;42.632;23.198;2023-08-06T04:20:16;90982.69;;;18.50;100.00
34506;BME280;20748;42.632;23.198;2023-08-06T04:22:49;90981.63;;;18.59;100.00
34506;BME280;20748;42.632;23.198;2023-08-06T04:25:22;90971.41;;;18.57;100.00
34506;BME280;20748;42.632;23.198;2023-08-06T04:27:56;90973.69;;;18.62;100.00
34506;BME280;20748;42.632;23.198;2023-08-06T04:30:28;90968.78;;;18.64;100.00
34506;BME280;20748;42.632;23.198;2023-08-06T04:33:01;90974.84;;;18.65;100.00
34506;BME280;20748;42.632;23.198;2023-08-06T04:35:33;90980.88;;;18.69;100.00
34506;BME280;20748;42.632;23.198;2023-08-06T04:38:06;90969.56;;;18.69;100.00
34506;BME280;20748;42.632;23.198;2023-08-06T04:40:39;90963.13;;;18.66;100.00
34506;BME280;20748;42.632;23.198;2023-08-06T04:43:12;90957.88;;;18.70;100.00
34506;BME280;20748;42.632;23.198;2023-08-06T04:45:48;90949.22;;;18.76;100.00
34506;BME280;20748;42.632;23.198;2023-08-06T04:48:20;90948.81;;;18.82;100.00
34506;BME280;20748;42.632;23.198;2023-08-06T04:50:52;90953.72;;;18.87;100.00
34506;BME280;20748;42.632;23.198;2023-08-06T04:53:26;90937.88;;;18.90;100.00
34506;BME280;20748;42.632;23.198;2023-08-06T04:55:59;90934.88;;;18.99;100.00
34506;BME280;20748;42.632;23.198;2023-08-06T04:58:31;90931.13;;;19.00;100.00
34506;BME280;20748;42.632;23.198;2023-08-06T05:01:04;90921.28;;;19.01;100.00
34506;BME280;20748;42.632;23.198;2023-08-06T05:03:36;90929.97;;;19.01;100.00
34506;BME280;20748;42.632;23.198;2023-08-06T05:06:09;90925.09;;;19.03;100.00
34506;BME280;20748;42.632;23.198;2023-08-06T05:08:42;90934.16;;;19.06;100.00
34506;BME280;20748;42.632;23.198;2023-08-06T05:11:15;90937.56;;;19.07;100.00
34506;BME280;20748;42.632;23.198;2023-08-06T05:13:47;90936.06;;;19.09;100.00
34506;BME280;20748;42.632;23.198;2023-08-06T05:16:20;90936.03;;;19.05;100.00
34506;BME280;20748;42.632;23.198;2023-08-06T05:18:52;90934.53;;;19.04;100.00
34506;BME280;20748;42.632;23.198;2023-08-06T05:21:24;90934.13;;;19.02;100.00
34506;BME280;20748;42.632;23.198;2023-08-06T05:23:57;90938.66;;;18.98;100.00
34506;BME280;20748;42.632;23.198;2023-08-06T05:26:30;90933.38;;;19.02;100.00
34506;BME280;20748;42.632;23.198;2023-08-06T05:29:02;90934.53;;;19.04;100.00
34506;BME280;20748;42.632;23.198;2023-08-06T05:31:35;90934.16;;;19.10;100.00
34506;BME280;20748;42.632;23.198;2023-08-06T05:34:07;90935.28;;;19.05;100.00
34506;BME280;20748;42.632;23.198;2023-08-06T05:36:40;90922.44;;;19.07;100.00
34506;BME280;20748;42.632;23.198;2023-08-06T05:39:12;90919.06;;;19.03;100.00
34506;BME280;20748;42.632;23.198;2023-08-06T05:41:45;90922.09;;;19.05;100.00
34506;BME280;20748;42.632;23.198;2023-08-06T05:44:17;90919.00;;;18.88;100.00
34506;BME280;20748;42.632;23.198;2023-08-06T05:46:50;90923.94;;;18.90;100.00
34506;BME280;20748;42.632;23.198;2023-08-06T05:49:23;90932.22;;;18.74;100.00
34506;BME280;20748;42.632;23.198;2023-08-06T05:51:55;90937.09;;;18.75;100.00
34506;BME280;20748;42.632;23.198;2023-08-06T05:54:28;90938.22;;;18.71;100.00
34506;BME280;20748;42.632;23.198;2023-08-06T05:57:01;90934.47;;;18.75;100.00
34506;BME280;20748;42.632;23.198;2023-08-06T05:59:33;90929.19;;;18.75;100.00
34506;BME280;20748;42.632;23.198;2023-08-06T06:02:05;90952.59;;;18.81;100.00
34506;BME280;20748;42.632;23.198;2023-08-06T06:04:38;90955.22;;;18.81;100.00
34506;BME280;20748;42.632;23.198;2023-08-06T06:07:10;90957.13;;;18.84;100.00
34506;BME280;20748;42.632;23.198;2023-08-06T06:09:42;90954.50;;;18.84;100.00
34506;BME280;20748;42.632;23.198;2023-08-06T06:12:15;90957.91;;;18.95;100.00
34506;BME280;20748;42.632;23.198;2023-08-06T06:14:48;90956.78;;;18.96;100.00
34506;BME280;20748;42.632;23.198;2023-08-06T06:17:21;90969.28;;;19.03;100.00
34506;BME280;20748;42.632;23.198;2023-08-06T06:19:54;90971.94;;;19.07;100.00
34506;BME280;20748;42.632;23.198;2023-08-06T06:22:26;90988.94;;;19.16;100.00
34506;BME280;20748;42.632;23.198;2023-08-06T06:24:59;90993.09;;;19.14;100.00
34506;BME280;20748;42.632;23.198;2023-08-06T06:27:32;90992.31;;;19.06;100.00
34506;BME280;20748;42.632;23.198;2023-08-06T06:30:06;90995.28;;;18.94;100.00
34506;BME280;20748;42.632;23.198;2023-08-06T06:32:38;90999.78;;;18.89;100.00
34506;BME280;20748;42.632;23.198;2023-08-06T06:35:12;91000.94;;;18.92;100.00
34506;BME280;20748;42.632;23.198;2023-08-06T06:37:45;91005.81;;;18.79;100.00
34506;BME280;20748;42.632;23.198;2023-08-06T06:40:17;91013.75;;;18.83;100.00
34506;BME280;20748;42.632;23.198;2023-08-06T06:42:50;91019.78;;;18.79;100.00
34506;BME280;20748;42.632;23.198;2023-08-06T06:45:22;91023.19;;;18.80;100.00
34506;BME280;20748;42.632;23.198;2023-08-06T06:47:55;91017.91;;;18.76;100.00
34506;BME280;20748;42.632;23.198;2023-08-06T06:50:27;91020.13;;;18.74;100.00
34506;BME280;20748;42.632;23.198;2023-08-06T06:53:00;91022.78;;;18.74;100.00
34506;BME280;20748;42.632;23.198;2023-08-06T06:55:32;91026.91;;;18.72;100.00
34506;BME280;20748;42.632;23.198;2023-08-06T06:58:06;91031.38;;;18.49;100.00
34506;BME280;20748;42.632;23.198;2023-08-06T07:00:39;91035.16;;;18.56;100.00
34506;BME280;20748;42.632;23.198;2023-08-06T07:03:11;91032.13;;;18.50;100.00
34506;BME280;20748;42.632;23.198;2023-08-06T07:05:44;91043.53;;;18.65;100.00
34506;BME280;20748;42.632;23.198;2023-08-06T07:08:17;91045.41;;;18.64;100.00
34506;BME280;20748;42.632;23.198;2023-08-06T07:10:49;91048.88;;;18.87;100.00
34506;BME280;20748;42.632;23.198;2023-08-06T07:13:22;91057.56;;;18.91;100.00
34506;BME280;20748;42.632;23.198;2023-08-06T07:15:54;91057.66;;;19.09;100.00
34506;BME280;20748;42.632;23.198;2023-08-06T07:18:27;91063.34;;;19.22;100.00
34506;BME280;20748;42.632;23.198;2023-08-06T07:20:59;91067.16;;;19.39;100.00
34506;BME280;20748;42.632;23.198;2023-08-06T07:23:32;91066.78;;;19.48;100.00
34506;BME280;20748;42.632;23.198;2023-08-06T07:26:04;91070.94;;;19.56;99.56
34506;BME280;20748;42.632;23.198;2023-08-06T07:28:37;91065.66;;;19.64;98.28
34506;BME280;20748;42.632;23.198;2023-08-06T07:31:09;91058.47;;;19.68;95.90
34506;BME280;20748;42.632;23.198;2023-08-06T07:33:42;91074.00;;;19.77;93.43
34506;BME280;20748;42.632;23.198;2023-08-06T07:36:14;91075.88;;;19.72;92.73
34506;BME280;20748;42.632;23.198;2023-08-06T07:38:47;91066.03;;;19.91;93.81
34506;BME280;20748;42.632;23.198;2023-08-06T07:41:23;91069.88;;;20.01;91.41
34506;BME280;20748;42.632;23.198;2023-08-06T07:43:56;91070.59;;;19.91;93.63
34506;BME280;20748;42.632;23.198;2023-08-06T07:46:28;91071.38;;;20.02;91.62
34506;BME280;20748;42.632;23.198;2023-08-06T07:49:01;91058.88;;;20.17;94.20
34506;BME280;20748;42.632;23.198;2023-08-06T07:51:34;91063.38;;;20.38;94.05
34506;BME280;20748;42.632;23.198;2023-08-06T07:54:06;91063.28;;;20.68;92.25
34506;BME280;20748;42.632;23.198;2023-08-06T07:56:39;91065.50;;;20.91;89.29
34506;BME280;20748;42.632;23.198;2023-08-06T07:59:12;91068.84;;;21.10;86.99
34506;BME280;20748;42.632;23.198;2023-08-06T08:01:44;91063.84;;;21.19;83.12
34506;BME280;20748;42.632;23.198;2023-08-06T08:04:17;91060.38;;;21.33;81.81
34506;BME280;20748;42.632;23.198;2023-08-06T08:06:49;91069.38;;;21.46;83.34
34506;BME280;20748;42.632;23.198;2023-08-06T08:09:22;91072.88;;;21.32;80.97
34506;BME280;20748;42.632;23.198;2023-08-06T08:11:54;91074.63;;;21.57;82.73
34506;BME280;20748;42.632;23.198;2023-08-06T08:14:29;91072.28;;;21.70;79.09
34506;BME280;20748;42.632;23.198;2023-08-06T08:17:07;91068.22;;;21.48;78.03
34506;BME280;20748;42.632;23.198;2023-08-06T08:19:39;91064.34;;;21.63;79.34
34506;BME280;20748;42.632;23.198;2023-08-06T08:22:12;91065.44;;;21.69;77.73
34506;BME280;20748;42.632;23.198;2023-08-06T08:24:44;91069.25;;;21.72;77.10
34506;BME280;20748;42.632;23.198;2023-08-06T08:27:16;91073.78;;;21.71;76.58
34506;BME280;20748;42.632;23.198;2023-08-06T08:29:49;91066.94;;;21.78;76.66
34506;BME280;20748;42.632;23.198;2023-08-06T08:32:22;91063.38;;;21.95;76.28
34506;BME280;20748;42.632;23.198;2023-08-06T08:34:55;91073.88;;;22.10;77.68
34506;BME280;20748;42.632;23.198;2023-08-06T08:37:28;91073.09;;;22.13;74.55
34506;BME280;20748;42.632;23.198;2023-08-06T08:40:01;91076.38;;;22.28;75.47
34506;BME280;20748;42.632;23.198;2023-08-06T08:42:35;91072.47;;;22.40;72.40
34506;BME280;20748;42.632;23.198;2023-08-06T08:45:12;91065.53;;;22.50;73.80
34506;BME280;20748;42.632;23.198;2023-08-06T08:47:46;91058.16;;;22.69;73.45
34506;BME280;20748;42.632;23.198;2023-08-06T08:50:19;91063.06;;;22.70;73.19
34506;BME280;20748;42.632;23.198;2023-08-06T08:52:53;91059.31;;;22.67;68.78
34506;BME280;20748;42.632;23.198;2023-08-06T08:55:26;91060.63;;;22.52;70.28
34506;BME280;20748;42.632;23.198;2023-08-06T08:57:59;91062.00;;;22.64;69.48
34506;BME280;20748;42.632;23.198;2023-08-06T09:00:32;91062.47;;;22.55;67.68
34506;BME280;20748;42.632;23.198;2023-08-06T09:03:06;91052.16;;;22.96;72.72
34506;BME280;20748;42.632;23.198;2023-08-06T09:05:41;91057.16;;;23.21;68.44
34506;BME280;20748;42.632;23.198;2023-08-06T09:08:18;91041.06;;;23.32;67.38
34506;BME280;20748;42.632;23.198;2023-08-06T09:10:51;91055.25;;;23.53;64.20
34506;BME280;20748;42.632;23.198;2023-08-06T09:13:24;91052.19;;;23.78;68.08
34506;BME280;20748;42.632;23.198;2023-08-06T09:15:58;91051.13;;;23.76;63.88
34506;BME280;20748;42.632;23.198;2023-08-06T09:18:30;91030.38;;;24.11;64.95
34506;BME280;20748;42.632;23.198;2023-08-06T09:21:03;91036.66;;;24.24;63.38
34506;BME280;20748;42.632;23.198;2023-08-06T09:23:35;91037.06;;;24.23;62.21
34506;BME280;20748;42.632;23.198;2023-08-06T09:26:11;91030.72;;;24.37;60.91
34506;BME280;20748;42.632;23.198;2023-08-06T09:28:46;91039.16;;;24.56;60.95
34506;BME280;20748;42.632;23.198;2023-08-06T09:31:19;91031.00;;;24.63;58.33
34506;BME280;20748;42.632;23.198;2023-08-06T09:33:52;91023.56;;;24.74;59.99
34506;BME280;20748;42.632;23.198;2023-08-06T09:36:24;91030.31;;;24.99;58.68
34506;BME280;20748;42.632;23.198;2023-08-06T09:38:57;91025.00;;;25.36;59.01
34506;BME280;20748;42.632;23.198;2023-08-06T09:41:30;91032.50;;;25.41;56.75
34506;BME280;20748;42.632;23.198;2023-08-06T09:44:02;91029.03;;;25.07;57.30
34506;BME280;20748;42.632;23.198;2023-08-06T09:46:36;91033.91;;;24.92;57.16
34506;BME280;20748;42.632;23.198;2023-08-06T09:49:09;91031.22;;;25.13;56.43
34506;BME280;20748;42.632;23.198;2023-08-06T09:51:42;91038.50;;;24.48;56.98
34506;BME280;20748;42.632;23.198;2023-08-06T09:54:17;91037.94;;;24.36;57.50
34506;BME280;20748;42.632;23.198;2023-08-06T09:56:59;91034.09;;;23.93;56.61
34506;BME280;20748;42.632;23.198;2023-08-06T09:59:33;91036.88;;;24.10;57.84
34506;BME280;20748;42.632;23.198;2023-08-06T10:02:12;91032.69;;;24.33;58.53
34506;BME280;20748;42.632;23.198;2023-08-06T10:04:44;91034.50;;;24.39;56.86
34506;BME280;20748;42.632;23.198;2023-08-06T10:07:27;91028.41;;;24.59;58.31
34506;BME280;20748;42.632;23.198;2023-08-06T10:10:03;91020.75;;;24.41;58.10
34506;BME280;20748;42.632;23.198;2023-08-06T10:12:38;91034.03;;;24.65;57.34
34506;BME280;20748;42.632;23.198;2023-08-06T10:15:15;91042.63;;;24.73;57.37
34506;BME280;20748;42.632;23.198;2023-08-06T10:17:51;91048.25;;;24.58;55.43
34506;BME280;20748;42.632;23.198;2023-08-06T10:20:25;91038.53;;;24.68;54.98
34506;BME280;20748;42.632;23.198;2023-08-06T10:23:01;91044.59;;;24.48;56.44
34506;BME280;20748;42.632;23.198;2023-08-06T10:25:35;91045.69;;;24.31;56.49
34506;BME280;20748;42.632;23.198;2023-08-06T10:28:08;91043.31;;;24.57;57.76
34506;BME280;20748;42.632;23.198;2023-08-06T10:30:43;91049.75;;;24.59;57.14
34506;BME280;20748;42.632;23.198;2023-08-06T10:33:19;91053.47;;;24.42;56.97
34506;BME280;20748;42.632;23.198;2023-08-06T10:36:01;91053.88;;;24.40;58.05
34506;BME280;20748;42.632;23.198;2023-08-06T10:38:44;91059.56;;;24.42;56.60
34506;BME280;20748;42.632;23.198;2023-08-06T10:41:22;91049.81;;;24.11;56.10
34506;BME280;20748;42.632;23.198;2023-08-06T10:44:05;91055.19;;;24.08;56.98
34506;BME280;20748;42.632;23.198;2023-08-06T10:46:39;91057.94;;;24.00;58.57
34506;BME280;20748;42.632;23.198;2023-08-06T10:49:12;91060.69;;;23.69;58.42
34506;BME280;20748;42.632;23.198;2023-08-06T10:51:46;91058.59;;;23.84;59.71
34506;BME280;20748;42.632;23.198;2023-08-06T10:54:19;91056.84;;;23.98;59.96
34506;BME280;20748;42.632;23.198;2023-08-06T10:56:51;91063.09;;;23.87;60.19
34506;BME280;20748;42.632;23.198;2023-08-06T10:59:26;91065.09;;;23.80;58.81
34506;BME280;20748;42.632;23.198;2023-08-06T11:02:01;91068.22;;;23.74;61.05
34506;BME280;20748;42.632;23.198;2023-08-06T11:04:34;91065.50;;;23.78;58.13
34506;BME280;20748;42.632;23.198;2023-08-06T11:07:07;91062.28;;;23.91;60.80
34506;BME280;20748;42.632;23.198;2023-08-06T11:09:39;91051.06;;;23.79;59.80
34506;BME280;20748;42.632;23.198;2023-08-06T11:12:11;91062.81;;;23.82;59.94
34506;BME280;20748;42.632;23.198;2023-08-06T11:14:49;91058.63;;;23.81;64.56
34506;BME280;20748;42.632;23.198;2023-08-06T11:17:22;91065.22;;;23.72;62.82
34506;BME280;20748;42.632;23.198;2023-08-06T11:19:56;91062.91;;;23.74;61.57
34506;BME280;20748;42.632;23.198;2023-08-06T11:22:31;91074.94;;;23.59;60.85
34506;BME280;20748;42.632;23.198;2023-08-06T11:25:05;91080.34;;;23.52;59.03
34506;BME280;20748;42.632;23.198;2023-08-06T11:27:38;91063.84;;;23.64;59.99
34506;BME280;20748;42.632;23.198;2023-08-06T11:30:11;91074.19;;;23.82;57.55
34506;BME280;20748;42.632;23.198;2023-08-06T11:32:47;91077.84;;;23.92;56.90
34506;BME280;20748;42.632;23.198;2023-08-06T11:35:21;91076.81;;;23.86;55.41
34506;BME280;20748;42.632;23.198;2023-08-06T11:37:53;91076.41;;;23.87;55.75
34506;BME280;20748;42.632;23.198;2023-08-06T11:40:26;91074.44;;;23.92;57.69
34506;BME280;20748;42.632;23.198;2023-08-06T11:42:59;91070.16;;;23.98;56.31
34506;BME280;20748;42.632;23.198;2023-08-06T11:45:37;91066.56;;;24.12;57.90
34506;BME280;20748;42.632;23.198;2023-08-06T11:48:10;91062.53;;;24.24;56.39
34506;BME280;20748;42.632;23.198;2023-08-06T11:50:43;91058.00;;;24.45;55.68
34506;BME280;20748;42.632;23.198;2023-08-06T11:53:15;91051.38;;;24.73;54.52
34506;BME280;20748;42.632;23.198;2023-08-06T11:55:48;91063.22;;;24.72;55.37
34506;BME280;20748;42.632;23.198;2023-08-06T11:58:21;91056.97;;;24.83;53.99
34506;BME280;20748;42.632;23.198;2023-08-06T12:00:53;91056.81;;;25.10;53.52
34506;BME280;20748;42.632;23.198;2023-08-06T12:03:29;91058.59;;;25.33;53.00
34506;BME280;20748;42.632;23.198;2023-08-06T12:06:03;91055.56;;;25.52;51.72
34506;BME280;20748;42.632;23.198;2023-08-06T12:08:36;91048.34;;;25.69;49.85
34506;BME280;20748;42.632;23.198;2023-08-06T12:11:10;91050.44;;;25.78;50.08
34506;BME280;20748;42.632;23.198;2023-08-06T12:13:42;91056.03;;;25.83;49.79
34506;BME280;20748;42.632;23.198;2023-08-06T12:16:15;91057.13;;;25.86;50.07
34506;BME280;20748;42.632;23.198;2023-08-06T12:18:49;91050.53;;;25.91;49.29
34506;BME280;20748;42.632;23.198;2023-08-06T12:21:23;91049.75;;;25.90;49.59
34506;BME280;20748;42.632;23.198;2023-08-06T12:23:55;91051.69;;;25.90;50.85
34506;BME280;20748;42.632;23.198;2023-08-06T12:26:27;91054.00;;;25.87;51.29
34506;BME280;20748;42.632;23.198;2023-08-06T12:29:00;91052.06;;;25.55;50.74
34506;BME280;20748;42.632;23.198;2023-08-06T12:31:32;91055.09;;;25.57;52.13
34506;BME280;20748;42.632;23.198;2023-08-06T12:34:05;91058.19;;;25.55;51.78
34506;BME280;20748;42.632;23.198;2023-08-06T12:36:38;91054.56;;;25.45;50.10
34506;BME280;20748;42.632;23.198;2023-08-06T12:39:10;91045.47;;;25.43;51.34
34506;BME280;20748;42.632;23.198;2023-08-06T12:41:46;91043.00;;;25.32;51.23
34506;BME280;20748;42.632;23.198;2023-08-06T12:44:18;91044.53;;;25.33;52.36
34506;BME280;20748;42.632;23.198;2023-08-06T12:46:50;91049.44;;;25.34;51.93
34506;BME280;20748;42.632;23.198;2023-08-06T12:49:24;91047.19;;;25.33;51.40
34506;BME280;20748;42.632;23.198;2023-08-06T12:51:58;91051.84;;;25.29;53.03
34506;BME280;20748;42.632;23.198;2023-08-06T12:54:31;91054.09;;;25.30;51.72
34506;BME280;20748;42.632;23.198;2023-08-06T12:57:08;91042.25;;;25.31;49.40
34506;BME280;20748;42.632;23.198;2023-08-06T12:59:40;91041.50;;;25.31;50.19
34506;BME280;20748;42.632;23.198;2023-08-06T13:02:13;91032.56;;;25.21;47.94
34506;BME280;20748;42.632;23.198;2023-08-06T13:04:46;91036.72;;;25.22;51.79
34506;BME280;20748;42.632;23.198;2023-08-06T13:07:19;91031.53;;;25.15;51.56
34506;BME280;20748;42.632;23.198;2023-08-06T13:09:51;91033.31;;;25.22;51.50
34506;BME280;20748;42.632;23.198;2023-08-06T13:12:24;91042.22;;;25.15;51.96
34506;BME280;20748;42.632;23.198;2023-08-06T13:14:56;91045.16;;;25.20;52.83
34506;BME280;20748;42.632;23.198;2023-08-06T13:17:31;91047.47;;;25.18;49.46